sensor_id;sensor_type;location;lat;lon;timestamp;pressure;altitude;pressure_sealevel;temperature;humidity
12077;BME280;12420;42.676;23.262;2023-06-04T00:01:59;94780.84;;;21.75;100.00
12077;BME280;12420;42.676;23.262;2023-06-04T00:04:25;94787.97;;;21.76;100.00
12077;BME280;12420;42.676;23.262;2023-06-04T00:06:53;94779.38;;;21.74;100.00
12077;BME280;12420;42.676;23.262;2023-06-04T00:09:20;94784.44;;;21.76;100.00
12077;BME280;12420;42.676;23.262;2023-06-04T00:11:47;94771.66;;;21.75;100.00
12077;BME280;12420;42.676;23.262;2023-06-04T00:14:15;94775.22;;;21.75;100.00
12077;BME280;12420;42.676;23.262;2023-06-04T00:16:42;94768.84;;;21.75;100.00
12077;BME280;12420;42.676;23.262;2023-06-04T00:19:09;94781.59;;;21.76;100.00
12077;BME280;12420;42.676;23.262;2023-06-04T00:21:36;94783.06;;;21.77;100.00
12077;BME280;12420;42.676;23.262;2023-06-04T00:24:03;94776.09;;;21.78;100.00
12077;BME280;12420;42.676;23.262;2023-06-04T00:26:30;94775.34;;;21.77;100.00
12077;BME280;12420;42.676;23.262;2023-06-04T00:28:56;94761.88;;;21.76;100.00
12077;BME280;12420;42.676;23.262;2023-06-04T00:31:24;94772.41;;;21.75;100.00
12077;BME280;12420;42.676;23.262;2023-06-04T00:33:51;94771.06;;;21.76;100.00
12077;BME280;12420;42.676;23.262;2023-06-04T00:36:18;94764.81;;;21.78;100.00
12077;BME280;12420;42.676;23.262;2023-06-04T00:38:46;94762.00;;;21.78;100.00
12077;BME280;12420;42.676;23.262;2023-06-04T00:41:12;94770.47;;;21.78;100.00
12077;BME280;12420;42.676;23.262;2023-06-04T00:43:39;94767.63;;;21.78;100.00
12077;BME280;12420;42.676;23.262;2023-06-04T00:46:11;94761.59;;;21.72;100.00
12077;BME280;12420;42.676;23.262;2023-06-04T00:48:44;94761.00;;;21.73;100.00
12077;BME280;12420;42.676;23.262;2023-06-04T00:51:11;94763.34;;;21.77;100.00
12077;BME280;12420;42.676;23.262;2023-06-04T00:53:39;94762.63;;;21.76;100.00
12077;BME280;12420;42.676;23.262;2023-06-04T00:56:06;94699.78;;;21.33;100.00
12077;BME280;12420;42.676;23.262;2023-06-04T00:58:37;94755.81;;;21.70;100.00
12077;BME280;12420;42.676;23.262;2023-06-04T01:01:05;94763.22;;;21.75;100.00
12077;BME280;12420;42.676;23.262;2023-06-04T01:03:37;94756.09;;;21.74;100.00
12077;BME280;12420;42.676;23.262;2023-06-04T01:06:12;94756.69;;;21.72;99.70
12077;BME280;12420;42.676;23.262;2023-06-04T01:08:46;94761.44;;;21.70;99.30
12077;BME280;12420;42.676;23.262;2023-06-04T01:11:14;94764.13;;;21.67;99.27
12077;BME280;12420;42.676;23.262;2023-06-04T01:13:41;94761.78;;;21.64;98.96
12077;BME280;12420;42.676;23.262;2023-06-04T01:16:11;94760.75;;;21.59;98.98
12077;BME280;12420;42.676;23.262;2023-06-04T01:18:39;94760.19;;;21.51;98.98
12077;BME280;12420;42.676;23.262;2023-06-04T01:21:09;94765.19;;;21.62;98.32
12077;BME280;12420;42.676;23.262;2023-06-04T01:23:46;94732.34;;;21.36;98.09
12077;BME280;12420;42.676;23.262;2023-06-04T01:26:13;94760.75;;;21.59;98.43
12077;BME280;12420;42.676;23.262;2023-06-04T01:28:40;94744.94;;;21.44;98.17
12077;BME280;12420;42.676;23.262;2023-06-04T01:31:08;94764.19;;;21.58;98.08
12077;BME280;12420;42.676;23.262;2023-06-04T01:33:35;94756.03;;;21.52;98.11
12077;BME280;12420;42.676;23.262;2023-06-04T01:36:02;94774.56;;;21.55;98.35
12077;BME280;12420;42.676;23.262;2023-06-04T01:38:30;94773.81;;;21.55;98.46
12077;BME280;12420;42.676;23.262;2023-06-04T01:40:57;94775.88;;;21.54;98.36
12077;BME280;12420;42.676;23.262;2023-06-04T01:43:27;94775.16;;;21.54;98.40
12077;BME280;12420;42.676;23.262;2023-06-04T01:45:54;94772.94;;;21.52;98.74
12077;BME280;12420;42.676;23.262;2023-06-04T01:48:22;94773.69;;;21.53;98.73
12077;BME280;12420;42.676;23.262;2023-06-04T01:50:48;94779.16;;;21.51;98.53
12077;BME280;12420;42.676;23.262;2023-06-04T01:53:15;94778.13;;;21.46;98.77
12077;BME280;12420;42.676;23.262;2023-06-04T01:55:43;94784.34;;;21.44;98.84
12077;BME280;12420;42.676;23.262;2023-06-04T01:58:10;94781.53;;;21.44;98.91
12077;BME280;12420;42.676;23.262;2023-06-04T02:00:37;94787.78;;;21.43;99.11
12077;BME280;12420;42.676;23.262;2023-06-04T02:03:03;94784.25;;;21.42;99.25
12077;BME280;12420;42.676;23.262;2023-06-04T02:05:31;94783.47;;;21.42;99.27
12077;BME280;12420;42.676;23.262;2023-06-04T02:07:57;94784.81;;;21.41;99.70
12077;BME280;12420;42.676;23.262;2023-06-04T02:10:27;94791.94;;;21.42;99.79
12077;BME280;12420;42.676;23.262;2023-06-04T02:12:56;94796.97;;;21.43;99.74
12077;BME280;12420;42.676;23.262;2023-06-04T02:15:24;94791.03;;;21.39;99.85
12077;BME280;12420;42.676;23.262;2023-06-04T02:17:54;94795.94;;;21.39;99.39
12077;BME280;12420;42.676;23.262;2023-06-04T02:20:23;94782.47;;;21.18;99.61
12077;BME280;12420;42.676;23.262;2023-06-04T02:22:50;94796.97;;;21.34;99.44
12077;BME280;12420;42.676;23.262;2023-06-04T02:25:17;94768.56;;;21.10;98.82
12077;BME280;12420;42.676;23.262;2023-06-04T02:27:44;94808.06;;;21.32;98.55
12077;BME280;12420;42.676;23.262;2023-06-04T02:30:12;94807.94;;;21.30;98.22
12077;BME280;12420;42.676;23.262;2023-06-04T02:32:40;94816.09;;;21.25;97.89
12077;BME280;12420;42.676;23.262;2023-06-04T02:35:09;94809.00;;;21.15;97.44
12077;BME280;12420;42.676;23.262;2023-06-04T02:37:36;94769.75;;;20.97;97.93
12077;BME280;12420;42.676;23.262;2023-06-04T02:40:03;94822.91;;;21.32;97.99
12077;BME280;12420;42.676;23.262;2023-06-04T02:42:30;94819.50;;;21.43;97.92
12077;BME280;12420;42.676;23.262;2023-06-04T02:44:57;94817.41;;;21.54;98.42
12077;BME280;12420;42.676;23.262;2023-06-04T02:47:26;94829.09;;;21.60;97.39
12077;BME280;12420;42.676;23.262;2023-06-04T02:49:53;94827.16;;;21.62;97.38
12077;BME280;12420;42.676;23.262;2023-06-04T02:52:20;94830.13;;;21.55;97.84
12077;BME280;12420;42.676;23.262;2023-06-04T02:54:48;94814.75;;;21.46;100.00
12077;BME280;12420;42.676;23.262;2023-06-04T02:57:14;94835.03;;;21.44;100.00
12077;BME280;12420;42.676;23.262;2023-06-04T02:59:41;94836.38;;;21.43;100.00
12077;BME280;12420;42.676;23.262;2023-06-04T03:02:08;94836.38;;;21.43;100.00
12077;BME280;12420;42.676;23.262;2023-06-04T03:04:37;94830.31;;;21.37;100.00
12077;BME280;12420;42.676;23.262;2023-06-04T03:07:05;94834.16;;;21.42;100.00
12077;BME280;12420;42.676;23.262;2023-06-04T03:09:33;94798.78;;;21.19;100.00
12077;BME280;12420;42.676;23.262;2023-06-04T03:12:01;94837.28;;;21.46;100.00
12077;BME280;12420;42.676;23.262;2023-06-04T03:14:27;94828.69;;;21.44;100.00
12077;BME280;12420;42.676;23.262;2023-06-04T03:16:58;94835.50;;;21.41;100.00
12077;BME280;12420;42.676;23.262;2023-06-04T03:19:33;94835.66;;;21.43;100.00
12077;BME280;12420;42.676;23.262;2023-06-04T03:22:01;94835.50;;;21.41;100.00
12077;BME280;12420;42.676;23.262;2023-06-04T03:24:34;94838.16;;;21.39;99.68
12077;BME280;12420;42.676;23.262;2023-06-04T03:27:02;94840.22;;;21.29;99.69
12077;BME280;12420;42.676;23.262;2023-06-04T03:29:29;94840.25;;;21.09;99.47
12077;BME280;12420;42.676;23.262;2023-06-04T03:31:57;94849.13;;;21.35;99.23
12077;BME280;12420;42.676;23.262;2023-06-04T03:34:24;94847.63;;;21.34;99.35
12077;BME280;12420;42.676;23.262;2023-06-04T03:36:51;94852.06;;;21.37;99.06
12077;BME280;12420;42.676;23.262;2023-06-04T03:39:19;94858.47;;;21.37;100.00
12077;BME280;12420;42.676;23.262;2023-06-04T03:41:46;94850.00;;;21.47;100.00
12077;BME280;12420;42.676;23.262;2023-06-04T03:44:13;94849.72;;;21.53;100.00
12077;BME280;12420;42.676;23.262;2023-06-04T03:46:40;94849.09;;;21.54;100.00
12077;BME280;12420;42.676;23.262;2023-06-04T03:49:08;94848.38;;;21.54;100.00
12077;BME280;12420;42.676;23.262;2023-06-04T03:51:35;94860.22;;;21.62;100.00
12077;BME280;12420;42.676;23.262;2023-06-04T03:54:02;94859.47;;;21.61;100.00
12077;BME280;12420;42.676;23.262;2023-06-04T03:56:30;94857.25;;;21.60;100.00
12077;BME280;12420;42.676;23.262;2023-06-04T03:58:57;94853.69;;;21.59;100.00
12077;BME280;12420;42.676;23.262;2023-06-04T04:01:25;94862.00;;;21.57;100.00
12077;BME280;12420;42.676;23.262;2023-06-04T04:03:52;94868.25;;;21.56;100.00
12077;BME280;12420;42.676;23.262;2023-06-04T04:06:19;94867.22;;;21.51;100.00
12077;BME280;12420;42.676;23.262;2023-06-04T04:08:46;94860.69;;;21.58;100.00
12077;BME280;12420;42.676;23.262;2023-06-04T04:11:14;94872.22;;;21.62;100.00
12077;BME280;12420;42.676;23.262;2023-06-04T04:13:44;94870.75;;;21.61;100.00
12077;BME280;12420;42.676;23.262;2023-06-04T04:16:11;94869.28;;;21.60;100.00
12077;BME280;12420;42.676;23.262;2023-06-04T04:18:38;94872.22;;;21.62;100.00
12077;BME280;12420;42.676;23.262;2023-06-04T04:21:06;94874.59;;;21.66;100.00
12077;BME280;12420;42.676;23.262;2023-06-04T04:23:33;94875.66;;;21.61;100.00
12077;BME280;12420;42.676;23.262;2023-06-04T04:26:00;94868.22;;;21.65;100.00
12077;BME280;12420;42.676;23.262;2023-06-04T04:28:27;94876.50;;;21.73;100.00
12077;BME280;12420;42.676;23.262;2023-06-04T04:30:56;94870.88;;;21.73;100.00
12077;BME280;12420;42.676;23.262;2023-06-04T04:33:24;94876.19;;;21.79;100.00
12077;BME280;12420;42.676;23.262;2023-06-04T04:35:52;94883.44;;;21.82;100.00
12077;BME280;12420;42.676;23.262;2023-06-04T04:38:20;94885.53;;;21.72;100.00
12077;BME280;12420;42.676;23.262;2023-06-04T04:40:49;94884.09;;;21.71;100.00
12077;BME280;12420;42.676;23.262;2023-06-04T04:43:17;94885.25;;;21.67;100.00
12077;BME280;12420;42.676;23.262;2023-06-04T04:45:44;94876.06;;;21.67;100.00
12077;BME280;12420;42.676;23.262;2023-06-04T04:48:12;94877.25;;;21.74;100.00
12077;BME280;12420;42.676;23.262;2023-06-04T04:50:39;94882.88;;;21.74;100.00
12077;BME280;12420;42.676;23.262;2023-06-04T04:53:06;94885.69;;;21.74;100.00
12077;BME280;12420;42.676;23.262;2023-06-04T04:55:32;94886.13;;;21.70;100.00
12077;BME280;12420;42.676;23.262;2023-06-04T04:57:59;94884.50;;;21.67;100.00
12077;BME280;12420;42.676;23.262;2023-06-04T05:00:26;94882.59;;;21.60;100.00
12077;BME280;12420;42.676;23.262;2023-06-04T05:02:53;94878.00;;;21.55;100.00
12077;BME280;12420;42.676;23.262;2023-06-04T05:05:21;94886.59;;;21.57;100.00
12077;BME280;12420;42.676;23.262;2023-06-04T05:07:48;94834.59;;;21.19;100.00
12077;BME280;12420;42.676;23.262;2023-06-04T05:10:14;94883.94;;;21.59;100.00
12077;BME280;12420;42.676;23.262;2023-06-04T05:12:51;94890.31;;;21.59;100.00
12077;BME280;12420;42.676;23.262;2023-06-04T05:15:18;94890.31;;;21.59;100.00
12077;BME280;12420;42.676;23.262;2023-06-04T05:17:45;94898.59;;;21.57;100.00
12077;BME280;12420;42.676;23.262;2023-06-04T05:20:12;94899.38;;;21.58;100.00
12077;BME280;12420;42.676;23.262;2023-06-04T05:22:40;94884.41;;;21.45;100.00
12077;BME280;12420;42.676;23.262;2023-06-04T05:25:08;94892.97;;;21.57;100.00
12077;BME280;12420;42.676;23.262;2023-06-04T05:27:35;94892.41;;;21.59;100.00
12077;BME280;12420;42.676;23.262;2023-06-04T05:30:02;94870.47;;;21.38;100.00
12077;BME280;12420;42.676;23.262;2023-06-04T05:32:29;94867.50;;;21.36;100.00
12077;BME280;12420;42.676;23.262;2023-06-04T05:34:58;94902.34;;;21.50;100.00
12077;BME280;12420;42.676;23.262;2023-06-04T05:37:26;94895.94;;;21.50;100.00
12077;BME280;12420;42.676;23.262;2023-06-04T05:39:55;94812.41;;;20.94;100.00
12077;BME280;12420;42.676;23.262;2023-06-04T05:42:22;94916.69;;;21.35;100.00
12077;BME280;12420;42.676;23.262;2023-06-04T05:44:50;94907.38;;;21.52;100.00
12077;BME280;12420;42.676;23.262;2023-06-04T05:47:17;94913.47;;;21.48;100.00
12077;BME280;12420;42.676;23.262;2023-06-04T05:49:44;94911.06;;;21.54;100.00
12077;BME280;12420;42.676;23.262;2023-06-04T05:52:11;94918.63;;;21.52;100.00
12077;BME280;12420;42.676;23.262;2023-06-04T05:54:37;94913.75;;;21.52;100.00
12077;BME280;12420;42.676;23.262;2023-06-04T05:57:05;94916.56;;;21.52;100.00
12077;BME280;12420;42.676;23.262;2023-06-04T05:59:34;94870.63;;;21.20;100.00
12077;BME280;12420;42.676;23.262;2023-06-04T06:02:01;94927.53;;;21.48;100.00
12077;BME280;12420;42.676;23.262;2023-06-04T06:04:27;94919.38;;;21.52;100.00
12077;BME280;12420;42.676;23.262;2023-06-04T06:06:57;94899.81;;;21.35;100.00
12077;BME280;12420;42.676;23.262;2023-06-04T06:09:24;94832.38;;;20.78;100.00
12077;BME280;12420;42.676;23.262;2023-06-04T06:11:51;94933.03;;;21.46;100.00
12077;BME280;12420;42.676;23.262;2023-06-04T06:14:19;94934.38;;;21.45;100.00
12077;BME280;12420;42.676;23.262;2023-06-04T06:16:48;94882.19;;;21.15;100.00
12077;BME280;12420;42.676;23.262;2023-06-04T06:19:15;94872.25;;;21.04;100.00
12077;BME280;12420;42.676;23.262;2023-06-04T06:21:42;94877.00;;;21.01;100.00
12077;BME280;12420;42.676;23.262;2023-06-04T06:24:09;94942.16;;;21.37;100.00
12077;BME280;12420;42.676;23.262;2023-06-04T06:26:36;94932.59;;;21.40;100.00
12077;BME280;12420;42.676;23.262;2023-06-04T06:29:03;94934.19;;;21.33;100.00
12077;BME280;12420;42.676;23.262;2023-06-04T06:31:31;94921.75;;;21.17;100.00
12077;BME280;12420;42.676;23.262;2023-06-04T06:33:58;94927.63;;;21.11;100.00
12077;BME280;12420;42.676;23.262;2023-06-04T06:36:24;94952.41;;;21.32;100.00
12077;BME280;12420;42.676;23.262;2023-06-04T06:38:51;94769.22;;;20.04;100.00
12077;BME280;12420;42.676;23.262;2023-06-04T06:41:18;94922.00;;;21.11;100.00
12077;BME280;12420;42.676;23.262;2023-06-04T06:43:45;94941.88;;;21.23;100.00
12077;BME280;12420;42.676;23.262;2023-06-04T06:46:12;94940.25;;;21.20;100.00
12077;BME280;12420;42.676;23.262;2023-06-04T06:48:40;94940.25;;;21.20;100.00
12077;BME280;12420;42.676;23.262;2023-06-04T06:51:10;94922.00;;;20.92;100.00
12077;BME280;12420;42.676;23.262;2023-06-04T06:53:38;94939.22;;;21.15;100.00
12077;BME280;12420;42.676;23.262;2023-06-04T06:56:05;94947.06;;;21.27;100.00
12077;BME280;12420;42.676;23.262;2023-06-04T06:58:32;94943.66;;;21.28;100.00
12077;BME280;12420;42.676;23.262;2023-06-04T07:00:59;94939.22;;;21.35;100.00
12077;BME280;12420;42.676;23.262;2023-06-04T07:03:26;94941.16;;;21.32;100.00
12077;BME280;12420;42.676;23.262;2023-06-04T07:05:54;94876.69;;;20.88;100.00
12077;BME280;12420;42.676;23.262;2023-06-04T07:08:22;94955.34;;;21.34;100.00
12077;BME280;12420;42.676;23.262;2023-06-04T07:10:49;94957.59;;;21.36;100.00
12077;BME280;12420;42.676;23.262;2023-06-04T07:13:17;94924.38;;;21.05;100.00
12077;BME280;12420;42.676;23.262;2023-06-04T07:15:44;94964.41;;;21.33;100.00
12077;BME280;12420;42.676;23.262;2023-06-04T07:18:10;94912.97;;;21.03;100.00
12077;BME280;12420;42.676;23.262;2023-06-04T07:20:37;94967.06;;;21.31;100.00
12077;BME280;12420;42.676;23.262;2023-06-04T07:23:06;94965.00;;;21.31;100.00
12077;BME280;12420;42.676;23.262;2023-06-04T07:25:33;94929.84;;;21.03;100.00
12077;BME280;12420;42.676;23.262;2023-06-04T07:27:59;94866.41;;;20.63;100.00
12077;BME280;12420;42.676;23.262;2023-06-04T07:30:32;94968.84;;;21.36;100.00
12077;BME280;12420;42.676;23.262;2023-06-04T07:32:59;94972.25;;;21.34;100.00
12077;BME280;12420;42.676;23.262;2023-06-04T07:35:26;94969.00;;;21.28;100.00
12077;BME280;12420;42.676;23.262;2023-06-04T07:37:53;94944.53;;;21.21;100.00
12077;BME280;12420;42.676;23.262;2023-06-04T07:40:21;94966.19;;;21.38;100.00
12077;BME280;12420;42.676;23.262;2023-06-04T07:42:48;94980.16;;;21.45;100.00
12077;BME280;12420;42.676;23.262;2023-06-04T07:45:15;94986.81;;;21.40;100.00
12077;BME280;12420;42.676;23.262;2023-06-04T07:47:42;94973.63;;;21.43;100.00
12077;BME280;12420;42.676;23.262;2023-06-04T07:50:09;94989.78;;;21.52;100.00
12077;BME280;12420;42.676;23.262;2023-06-04T07:52:36;94996.75;;;21.51;100.00
12077;BME280;12420;42.676;23.262;2023-06-04T07:55:03;94993.94;;;21.51;100.00
12077;BME280;12420;42.676;23.262;2023-06-04T07:57:33;94989.66;;;21.50;100.00
12077;BME280;12420;42.676;23.262;2023-06-04T08:00:00;94994.53;;;21.50;100.00
12077;BME280;12420;42.676;23.262;2023-06-04T08:02:29;94987.25;;;21.46;100.00
12077;BME280;12420;42.676;23.262;2023-06-04T08:04:56;94998.22;;;21.52;100.00
12077;BME280;12420;42.676;23.262;2023-06-04T08:07:22;94948.22;;;21.14;100.00
12077;BME280;12420;42.676;23.262;2023-06-04T08:09:50;94993.03;;;21.49;100.00
12077;BME280;12420;42.676;23.262;2023-06-04T08:12:17;94961.13;;;21.27;100.00
12077;BME280;12420;42.676;23.262;2023-06-04T08:14:45;94916.97;;;21.00;100.00
12077;BME280;12420;42.676;23.262;2023-06-04T08:17:12;94941.00;;;21.20;100.00
12077;BME280;12420;42.676;23.262;2023-06-04T08:19:38;95001.34;;;21.56;100.00
12077;BME280;12420;42.676;23.262;2023-06-04T08:22:05;95000.00;;;21.57;100.00
12077;BME280;12420;42.676;23.262;2023-06-04T08:24:32;94966.50;;;21.32;100.00
12077;BME280;12420;42.676;23.262;2023-06-04T08:26:59;95002.06;;;21.47;100.00
12077;BME280;12420;42.676;23.262;2023-06-04T08:29:26;95004.31;;;21.58;100.00
12077;BME280;12420;42.676;23.262;2023-06-04T08:31:54;95006.41;;;21.58;100.00
12077;BME280;12420;42.676;23.262;2023-06-04T08:34:21;95003.59;;;21.58;100.00
12077;BME280;12420;42.676;23.262;2023-06-04T08:36:47;95010.53;;;21.57;100.00
12077;BME280;12420;42.676;23.262;2023-06-04T08:39:14;94961.44;;;21.21;100.00
12077;BME280;12420;42.676;23.262;2023-06-04T08:41:43;94986.19;;;21.32;100.00
12077;BME280;12420;42.676;23.262;2023-06-04T08:44:11;94973.00;;;21.35;100.00
12077;BME280;12420;42.676;23.262;2023-06-04T08:46:39;95005.78;;;21.59;100.00
12077;BME280;12420;42.676;23.262;2023-06-04T08:49:08;95018.41;;;21.58;100.00
12077;BME280;12420;42.676;23.262;2023-06-04T08:51:36;95019.44;;;21.53;100.00
12077;BME280;12420;42.676;23.262;2023-06-04T08:54:04;95025.66;;;21.61;100.00
12077;BME280;12420;42.676;23.262;2023-06-04T08:56:31;94980.69;;;21.34;100.00
12077;BME280;12420;42.676;23.262;2023-06-04T08:59:01;95028.31;;;21.59;99.64
12077;BME280;12420;42.676;23.262;2023-06-04T09:01:28;95004.88;;;21.37;98.92
12077;BME280;12420;42.676;23.262;2023-06-04T09:03:55;94996.44;;;21.37;98.83
12077;BME280;12420;42.676;23.262;2023-06-04T09:06:25;95033.97;;;21.59;98.53
12077;BME280;12420;42.676;23.262;2023-06-04T09:08:56;95034.56;;;21.58;98.38
12077;BME280;12420;42.676;23.262;2023-06-04T09:11:27;95041.66;;;21.59;98.90
12077;BME280;12420;42.676;23.262;2023-06-04T09:13:59;95033.81;;;21.57;99.11
12077;BME280;12420;42.676;23.262;2023-06-04T09:16:28;94977.28;;;21.16;98.86
12077;BME280;12420;42.676;23.262;2023-06-04T09:19:02;95039.44;;;21.57;97.48
12077;BME280;12420;42.676;23.262;2023-06-04T09:21:30;95043.59;;;21.56;96.12
12077;BME280;12420;42.676;23.262;2023-06-04T09:23:58;95030.84;;;21.55;95.94
12077;BME280;12420;42.676;23.262;2023-06-04T09:26:25;95030.84;;;21.55;95.36
12077;BME280;12420;42.676;23.262;2023-06-04T09:28:52;95030.84;;;21.55;94.85
12077;BME280;12420;42.676;23.262;2023-06-04T09:31:22;95023.13;;;21.46;95.08
12077;BME280;12420;42.676;23.262;2023-06-04T09:33:52;95030.25;;;21.57;95.65
12077;BME280;12420;42.676;23.262;2023-06-04T09:36:19;94995.38;;;21.33;95.28
12077;BME280;12420;42.676;23.262;2023-06-04T09:38:48;95026.25;;;21.60;95.61
12077;BME280;12420;42.676;23.262;2023-06-04T09:41:17;95005.50;;;21.45;95.84
12077;BME280;12420;42.676;23.262;2023-06-04T09:43:45;95019.28;;;21.61;96.03
12077;BME280;12420;42.676;23.262;2023-06-04T09:46:12;95022.84;;;21.61;97.35
12077;BME280;12420;42.676;23.262;2023-06-04T09:48:40;95023.00;;;21.63;96.59
12077;BME280;12420;42.676;23.262;2023-06-04T09:51:09;95018.84;;;21.64;97.46
12077;BME280;12420;42.676;23.262;2023-06-04T09:53:37;95034.28;;;21.63;96.85
12077;BME280;12420;42.676;23.262;2023-06-04T09:56:07;95028.03;;;21.65;98.21
12077;BME280;12420;42.676;23.262;2023-06-04T09:58:38;95025.97;;;21.65;96.78
12077;BME280;12420;42.676;23.262;2023-06-04T10:01:05;95028.03;;;21.65;97.79
12077;BME280;12420;42.676;23.262;2023-06-04T10:03:33;94994.66;;;21.42;95.79
12077;BME280;12420;42.676;23.262;2023-06-04T10:06:02;94983.94;;;21.11;97.89
12077;BME280;12420;42.676;23.262;2023-06-04T10:08:30;94980.84;;;21.36;96.35
12077;BME280;12420;42.676;23.262;2023-06-04T10:11:00;95021.97;;;21.68;97.70
12077;BME280;12420;42.676;23.262;2023-06-04T10:13:36;95012.63;;;21.66;97.25
12077;BME280;12420;42.676;23.262;2023-06-04T10:16:06;95014.56;;;21.63;98.05
12077;BME280;12420;42.676;23.262;2023-06-04T10:18:35;94986.53;;;21.46;97.54
12077;BME280;12420;42.676;23.262;2023-06-04T10:21:03;95015.13;;;21.72;96.74
12077;BME280;12420;42.676;23.262;2023-06-04T10:23:32;95015.00;;;21.79;97.21
12077;BME280;12420;42.676;23.262;2023-06-04T10:26:00;94996.75;;;21.71;96.48
12077;BME280;12420;42.676;23.262;2023-06-04T10:28:27;94978.38;;;21.50;95.59
12077;BME280;12420;42.676;23.262;2023-06-04T10:30:57;94992.16;;;21.46;95.68
12077;BME280;12420;42.676;23.262;2023-06-04T10:33:29;94999.72;;;21.63;95.08
12077;BME280;12420;42.676;23.262;2023-06-04T10:35:56;95026.84;;;21.78;94.36
12077;BME280;12420;42.676;23.262;2023-06-04T10:38:23;94999.28;;;21.66;95.59
12077;BME280;12420;42.676;23.262;2023-06-04T10:40:51;95015.00;;;21.79;93.43
12077;BME280;12420;42.676;23.262;2023-06-04T10:43:18;95016.91;;;21.77;93.59
12077;BME280;12420;42.676;23.262;2023-06-04T10:45:45;94983.88;;;21.58;94.20
12077;BME280;12420;42.676;23.262;2023-06-04T10:48:14;95014.84;;;21.77;94.08
12077;BME280;12420;42.676;23.262;2023-06-04T10:50:51;95015.72;;;21.80;93.28
12077;BME280;12420;42.676;23.262;2023-06-04T10:53:18;95014.09;;;21.77;93.57
12077;BME280;12420;42.676;23.262;2023-06-04T10:55:48;94981.03;;;21.48;94.38
12077;BME280;12420;42.676;23.262;2023-06-04T10:58:15;95006.22;;;21.75;93.60
12077;BME280;12420;42.676;23.262;2023-06-04T11:00:44;95011.88;;;21.75;93.61
12077;BME280;12420;42.676;23.262;2023-06-04T11:03:15;95005.34;;;21.73;94.50
12077;BME280;12420;42.676;23.262;2023-06-04T11:05:45;94974.81;;;21.50;94.57
12077;BME280;12420;42.676;23.262;2023-06-04T11:08:13;95005.34;;;21.73;95.14
12077;BME280;12420;42.676;23.262;2023-06-04T11:10:42;95005.50;;;21.75;94.88
12077;BME280;12420;42.676;23.262;2023-06-04T11:13:08;95005.50;;;21.75;94.64
12077;BME280;12420;42.676;23.262;2023-06-04T11:15:40;95005.06;;;21.68;95.08
12077;BME280;12420;42.676;23.262;2023-06-04T11:18:07;95007.28;;;21.70;96.53
12077;BME280;12420;42.676;23.262;2023-06-04T11:20:37;95011.13;;;21.75;95.80
12077;BME280;12420;42.676;23.262;2023-06-04T11:23:04;95015.44;;;21.76;96.46
12077;BME280;12420;42.676;23.262;2023-06-04T11:25:31;95006.84;;;21.74;96.99
12077;BME280;12420;42.676;23.262;2023-06-04T11:28:00;94989.94;;;21.64;96.69
12077;BME280;12420;42.676;23.262;2023-06-04T11:30:28;95008.47;;;21.77;96.50
12077;BME280;12420;42.676;23.262;2023-06-04T11:33:02;95008.03;;;21.71;96.48
12077;BME280;12420;42.676;23.262;2023-06-04T11:35:29;95002.84;;;21.77;96.12
12077;BME280;12420;42.676;23.262;2023-06-04T11:37:58;95001.34;;;21.76;96.32
12077;BME280;12420;42.676;23.262;2023-06-04T11:40:25;94999.88;;;21.75;95.23
12077;BME280;12420;42.676;23.262;2023-06-04T11:42:53;94980.16;;;21.55;95.19
12077;BME280;12420;42.676;23.262;2023-06-04T11:45:21;94991.72;;;21.69;95.34
12077;BME280;12420;42.676;23.262;2023-06-04T11:47:50;94997.94;;;21.77;95.44
12077;BME280;12420;42.676;23.262;2023-06-04T11:50:21;95004.19;;;21.76;94.54
12077;BME280;12420;42.676;23.262;2023-06-04T11:52:48;94986.09;;;21.40;94.59
12077;BME280;12420;42.676;23.262;2023-06-04T11:55:17;95009.81;;;21.76;94.66
12077;BME280;12420;42.676;23.262;2023-06-04T11:57:46;95016.91;;;21.77;95.24
12077;BME280;12420;42.676;23.262;2023-06-04T12:00:14;94999.28;;;21.76;94.55
12077;BME280;12420;42.676;23.262;2023-06-04T12:02:49;94993.78;;;21.68;94.88
12077;BME280;12420;42.676;23.262;2023-06-04T12:05:17;94978.38;;;21.50;94.83
12077;BME280;12420;42.676;23.262;2023-06-04T12:07:45;95013.38;;;21.76;94.47
12077;BME280;12420;42.676;23.262;2023-06-04T12:10:13;95008.47;;;21.77;94.41
12077;BME280;12420;42.676;23.262;2023-06-04T12:12:41;95019.75;;;21.77;93.91
12077;BME280;12420;42.676;23.262;2023-06-04T12:15:10;95019.00;;;21.86;94.79
12077;BME280;12420;42.676;23.262;2023-06-04T12:17:37;95021.97;;;21.88;94.65
12077;BME280;12420;42.676;23.262;2023-06-04T12:20:05;95018.84;;;21.84;94.87
12077;BME280;12420;42.676;23.262;2023-06-04T12:22:33;95006.69;;;21.81;95.59
12077;BME280;12420;42.676;23.262;2023-06-04T12:25:10;94973.63;;;21.43;95.91
12077;BME280;12420;42.676;23.262;2023-06-04T12:27:47;95007.00;;;21.76;96.77
12077;BME280;12420;42.676;23.262;2023-06-04T12:30:14;95014.84;;;21.77;97.76
12077;BME280;12420;42.676;23.262;2023-06-04T12:32:41;95017.66;;;21.77;98.92
12077;BME280;12420;42.676;23.262;2023-06-04T12:35:09;95014.09;;;21.77;99.60
12077;BME280;12420;42.676;23.262;2023-06-04T12:37:36;95010.56;;;21.76;100.00
12077;BME280;12420;42.676;23.262;2023-06-04T12:40:03;95010.56;;;21.76;100.00
12077;BME280;12420;42.676;23.262;2023-06-04T12:42:31;95016.63;;;21.73;100.00
12077;BME280;12420;42.676;23.262;2023-06-04T12:45:00;94982.81;;;21.53;100.00
12077;BME280;12420;42.676;23.262;2023-06-04T12:47:27;95009.81;;;21.76;100.00
12077;BME280;12420;42.676;23.262;2023-06-04T12:49:53;95003.41;;;21.75;100.00